createdAt,value
2023-12-23T00:02:24.639Z,7.30
2023-12-23T00:04:51.220Z,7.29
2023-12-23T00:07:17.849Z,7.18
2023-12-23T00:09:44.499Z,7.32
2023-12-23T00:12:11.116Z,7.33
2023-12-23T00:14:38.459Z,7.33
2023-12-23T00:17:05.272Z,7.35
2023-12-23T00:19:31.945Z,7.30
2023-12-23T00:21:58.629Z,7.35
2023-12-23T00:24:30.684Z,7.34
2023-12-23T00:26:58.720Z,7.33
2023-12-23T00:29:26.007Z,7.33
2023-12-23T00:31:52.585Z,7.28
2023-12-23T00:34:19.604Z,7.34
2023-12-23T00:36:46.400Z,7.32
2023-12-23T00:39:13.705Z,7.33
2023-12-23T00:41:40.257Z,7.29
2023-12-23T00:44:06.970Z,7.25
2023-12-23T00:46:34.086Z,7.21
2023-12-23T00:49:00.924Z,7.14
2023-12-23T00:51:27.482Z,7.14
2023-12-23T00:53:54.015Z,7.14
2023-12-23T00:56:21.534Z,7.21
2023-12-23T00:58:48.705Z,7.08
2023-12-23T01:01:15.554Z,7.02
2023-12-23T01:03:42.115Z,7.07
2023-12-23T01:06:08.699Z,7.10
2023-12-23T01:08:35.193Z,7.13
2023-12-23T01:11:02.256Z,7.09
2023-12-23T01:13:28.836Z,7.06
2023-12-23T01:15:55.657Z,7.04
2023-12-23T01:18:22.255Z,7.06
2023-12-23T01:20:48.805Z,7.06
2023-12-23T01:23:15.418Z,6.92
2023-12-23T01:25:42.124Z,7.08
2023-12-23T01:28:08.793Z,7.16
2023-12-23T01:30:35.299Z,7.15
2023-12-23T01:33:02.191Z,7.24
2023-12-23T01:35:28.835Z,7.21
2023-12-23T01:37:57.100Z,7.18
2023-12-23T01:40:25.821Z,7.09
2023-12-23T01:42:52.409Z,7.15
2023-12-23T01:45:18.932Z,7.22
2023-12-23T01:47:49.653Z,7.19
2023-12-23T01:50:18.788Z,7.16
2023-12-23T01:52:46.123Z,7.08
2023-12-23T01:55:13.193Z,7.14
2023-12-23T01:57:40.072Z,7.20
2023-12-23T02:00:08.534Z,7.18
2023-12-23T02:02:39.668Z,7.23
2023-12-23T02:05:07.727Z,7.24
2023-12-23T02:07:35.958Z,7.17
2023-12-23T02:10:03.774Z,7.27
2023-12-23T02:13:12.884Z,7.16
2023-12-23T02:15:44.248Z,7.25
2023-12-23T02:18:11.546Z,7.24
2023-12-23T02:20:38.366Z,7.15
2023-12-23T02:23:05.545Z,7.16
2023-12-23T02:25:32.584Z,7.24
2023-12-23T02:28:06.391Z,7.27
2023-12-23T02:30:34.792Z,7.29
2023-12-23T02:33:02.088Z,7.29
2023-12-23T02:35:28.755Z,7.31
2023-12-23T02:37:56.246Z,7.29
2023-12-23T02:40:23.107Z,7.25
2023-12-23T02:42:50.201Z,7.26
2023-12-23T02:45:17.114Z,7.24
2023-12-23T02:47:43.755Z,7.40
2023-12-23T02:50:10.688Z,7.46
2023-12-23T02:52:37.218Z,7.51
2023-12-23T02:55:04.607Z,7.60
2023-12-23T02:57:31.119Z,7.66
2023-12-23T02:59:57.597Z,7.68
2023-12-23T03:02:24.473Z,7.72
2023-12-23T03:04:51.074Z,7.76
2023-12-23T03:07:17.655Z,7.79
2023-12-23T03:09:44.177Z,7.81
2023-12-23T03:12:10.718Z,7.84
2023-12-23T03:14:37.260Z,7.88
2023-12-23T03:17:04.495Z,7.91
2023-12-23T03:19:31.046Z,7.92
2023-12-23T03:21:57.535Z,7.94
2023-12-23T03:24:24.091Z,7.97
2023-12-23T03:26:50.564Z,7.97
2023-12-23T03:29:17.144Z,7.99
2023-12-23T03:31:43.678Z,8.01
2023-12-23T03:34:10.264Z,8.05
2023-12-23T03:36:36.847Z,8.06
2023-12-23T03:39:04.931Z,8.08
2023-12-23T03:41:31.469Z,8.12
2023-12-23T03:43:57.962Z,8.15
2023-12-23T03:46:24.492Z,8.13
2023-12-23T03:48:50.977Z,8.15
2023-12-23T03:51:17.641Z,8.18
2023-12-23T03:53:44.221Z,8.26
2023-12-23T03:56:10.837Z,8.29
2023-12-23T03:58:37.601Z,8.30
2023-12-23T04:01:04.413Z,8.34
2023-12-23T04:03:31.153Z,8.39
2023-12-23T04:05:58.178Z,8.43
2023-12-23T04:08:24.790Z,8.39
2023-12-23T04:10:51.428Z,8.39
2023-12-23T04:13:18.175Z,8.45
2023-12-23T04:15:44.994Z,8.42
2023-12-23T04:18:11.706Z,8.45
2023-12-23T04:20:38.239Z,8.45
2023-12-23T04:23:05.000Z,8.44
2023-12-23T04:25:31.561Z,8.47
2023-12-23T04:27:58.138Z,8.46
2023-12-23T04:30:24.773Z,8.43
2023-12-23T04:32:51.724Z,8.48
2023-12-23T04:35:18.571Z,8.47
2023-12-23T04:37:46.037Z,8.45
2023-12-23T04:40:13.067Z,8.46
2023-12-23T04:42:39.649Z,8.47
2023-12-23T04:45:08.077Z,8.50
2023-12-23T04:47:34.870Z,8.48
2023-12-23T04:50:01.569Z,8.50
2023-12-23T04:52:28.175Z,8.54
2023-12-23T04:54:54.674Z,8.55
2023-12-23T04:57:21.161Z,8.55
2023-12-23T04:59:47.867Z,8.57
2023-12-23T05:02:14.416Z,8.54
2023-12-23T05:04:41.057Z,8.51
2023-12-23T05:07:07.630Z,8.54
2023-12-23T05:09:35.893Z,8.54
2023-12-23T05:12:02.425Z,8.58
2023-12-23T05:14:28.895Z,8.55
2023-12-23T05:16:55.415Z,8.59
2023-12-23T05:19:21.969Z,8.61
2023-12-23T05:21:48.502Z,8.60
2023-12-23T05:24:15.157Z,8.57
2023-12-23T05:26:41.610Z,8.59
2023-12-23T05:29:08.390Z,8.63
2023-12-23T05:31:35.503Z,8.61
2023-12-23T05:34:02.196Z,8.57
2023-12-23T05:36:29.174Z,8.57
2023-12-23T05:38:55.682Z,8.56
2023-12-23T05:41:22.337Z,8.61
2023-12-23T05:43:49.112Z,8.60
2023-12-23T05:46:15.713Z,8.63
2023-12-23T05:48:42.394Z,8.62
2023-12-23T05:51:10.001Z,8.60
2023-12-23T05:53:36.565Z,8.54
2023-12-23T05:56:08.177Z,8.56
2023-12-23T05:58:34.865Z,8.55
2023-12-23T06:01:01.921Z,8.50
2023-12-23T06:03:28.777Z,8.51
2023-12-23T06:05:56.614Z,8.51
2023-12-23T06:08:23.539Z,8.50
2023-12-23T06:10:57.473Z,8.48
2023-12-23T06:13:26.486Z,8.47
2023-12-23T06:15:53.211Z,8.46
2023-12-23T06:20:46.257Z,8.43
2023-12-23T06:23:13.227Z,8.40
2023-12-23T06:25:39.900Z,8.41
2023-12-23T06:28:06.668Z,8.43
2023-12-23T06:30:33.251Z,8.44
2023-12-23T06:32:59.926Z,8.47
2023-12-23T06:35:26.618Z,8.51
2023-12-23T06:37:53.138Z,8.52
2023-12-23T06:40:19.892Z,8.50
2023-12-23T06:42:46.451Z,8.52
2023-12-23T06:45:13.597Z,8.53
2023-12-23T06:47:40.249Z,8.54
2023-12-23T06:50:07.480Z,8.51
2023-12-23T06:52:34.198Z,8.50
2023-12-23T06:55:00.744Z,8.50
2023-12-23T06:57:27.226Z,8.52
2023-12-23T06:59:53.721Z,8.55
2023-12-23T07:02:20.385Z,8.56
2023-12-23T07:04:47.440Z,8.58
2023-12-23T07:07:14.006Z,8.59
2023-12-23T07:09:40.566Z,8.60
2023-12-23T07:12:07.397Z,8.62
2023-12-23T07:14:33.954Z,8.62
2023-12-23T07:17:01.205Z,8.65
2023-12-23T07:19:27.759Z,8.65
2023-12-23T07:21:54.905Z,8.66
2023-12-23T07:24:21.790Z,8.74
2023-12-23T07:26:48.467Z,8.73
2023-12-23T07:29:15.247Z,8.77
2023-12-23T07:31:41.848Z,8.72
2023-12-23T07:34:08.788Z,8.74
2023-12-23T07:36:35.556Z,8.77
2023-12-23T07:39:02.170Z,8.80
2023-12-23T07:41:28.739Z,8.84
2023-12-23T07:43:55.554Z,8.79
2023-12-23T07:46:22.171Z,8.81
2023-12-23T07:48:48.815Z,8.83
2023-12-23T07:51:16.009Z,8.84
2023-12-23T07:53:42.651Z,8.90
2023-12-23T07:56:09.415Z,8.85
2023-12-23T07:58:36.064Z,8.87
2023-12-23T08:01:02.637Z,8.90
2023-12-23T08:03:29.280Z,8.88
2023-12-23T08:05:56.048Z,8.91
2023-12-23T08:08:22.743Z,8.91
2023-12-23T08:10:51.519Z,8.89
2023-12-23T08:13:18.855Z,8.93
2023-12-23T08:15:45.437Z,8.94
2023-12-23T08:18:13.280Z,8.96
2023-12-23T08:20:39.887Z,8.94
2023-12-23T08:23:06.591Z,8.96
2023-12-23T08:25:33.447Z,9.01
2023-12-23T08:28:00.020Z,9.04
2023-12-23T08:30:26.702Z,9.02
2023-12-23T08:32:53.723Z,9.03
2023-12-23T08:35:20.607Z,9.04
2023-12-23T08:37:47.374Z,9.06
2023-12-23T08:40:14.155Z,9.08
2023-12-23T08:42:40.955Z,9.11
2023-12-23T08:45:07.891Z,9.14
2023-12-23T08:47:34.573Z,9.11
2023-12-23T08:50:01.368Z,9.10
2023-12-23T08:52:28.927Z,9.08
2023-12-23T08:54:55.554Z,9.11
2023-12-23T08:57:22.126Z,9.09
2023-12-23T08:59:48.660Z,9.11
2023-12-23T09:02:15.213Z,9.19
2023-12-23T09:04:42.088Z,9.20
2023-12-23T09:07:09.680Z,9.21
2023-12-23T09:09:36.340Z,9.20
2023-12-23T09:12:03.215Z,9.25
2023-12-23T09:14:31.020Z,9.24
2023-12-23T09:16:57.643Z,9.21
2023-12-23T09:19:24.244Z,9.20
2023-12-23T09:21:50.882Z,9.20
2023-12-23T09:24:17.493Z,9.21
2023-12-23T09:26:44.393Z,9.19
2023-12-23T09:29:12.171Z,9.18
2023-12-23T09:31:38.730Z,9.12
2023-12-23T09:34:05.323Z,9.12
2023-12-23T09:36:31.823Z,9.15
2023-12-23T09:38:58.291Z,9.12
2023-12-23T09:41:25.011Z,9.14
2023-12-23T09:43:53.308Z,9.16
2023-12-23T09:46:20.873Z,9.17
2023-12-23T09:48:48.084Z,9.20
2023-12-23T09:51:17.161Z,9.21
2023-12-23T09:53:47.385Z,9.19
2023-12-23T09:56:15.063Z,9.19
2023-12-23T09:58:44.411Z,9.19
2023-12-23T10:01:11.172Z,9.21
2023-12-23T10:03:37.719Z,9.23
2023-12-23T10:06:04.363Z,9.24
2023-12-23T10:08:30.953Z,9.22
2023-12-23T10:10:57.666Z,9.24
2023-12-23T10:13:24.257Z,9.24
2023-12-23T10:15:50.866Z,9.26
2023-12-23T10:18:17.547Z,9.26
2023-12-23T10:20:44.755Z,9.26
2023-12-23T10:23:11.608Z,9.26
2023-12-23T10:25:39.722Z,9.29
2023-12-23T10:28:09.205Z,9.29
2023-12-23T10:30:39.710Z,9.29
2023-12-23T10:33:07.991Z,9.29
2023-12-23T10:35:46.094Z,9.31
2023-12-23T10:38:23.829Z,9.34
2023-12-23T10:41:14.427Z,9.36
2023-12-23T10:43:42.458Z,9.38
2023-12-23T10:46:10.028Z,9.39
2023-12-23T10:48:37.865Z,9.40
2023-12-23T10:51:05.404Z,9.41
2023-12-23T10:53:33.053Z,9.43
2023-12-23T10:55:59.880Z,9.43
2023-12-23T10:58:28.099Z,9.45
2023-12-23T11:00:56.398Z,9.45
2023-12-23T11:03:26.230Z,9.47
2023-12-23T11:05:54.541Z,9.48
2023-12-23T11:08:24.001Z,9.52
2023-12-23T11:10:50.950Z,9.55
2023-12-23T11:13:20.636Z,9.55
2023-12-23T11:15:48.115Z,9.55
2023-12-23T11:18:14.787Z,9.60
2023-12-23T11:20:50.790Z,9.63
2023-12-23T11:23:30.232Z,9.66
2023-12-23T11:25:57.355Z,9.69
2023-12-23T11:28:27.241Z,9.74
2023-12-23T11:30:58.957Z,9.77
2023-12-23T11:33:36.086Z,9.76
2023-12-23T11:36:03.292Z,9.76
2023-12-23T11:38:45.211Z,9.79
2023-12-23T11:41:13.878Z,9.82
2023-12-23T11:43:51.052Z,9.84
2023-12-23T11:46:19.506Z,9.84
2023-12-23T11:48:46.044Z,9.85
2023-12-23T11:51:12.809Z,9.85
2023-12-23T11:53:40.745Z,9.85
2023-12-23T11:56:08.085Z,9.86
2023-12-23T11:58:34.816Z,9.87
2023-12-23T12:01:01.486Z,9.88
2023-12-23T12:03:28.465Z,9.90
2023-12-23T12:05:56.886Z,9.93
2023-12-23T12:08:24.223Z,10.01
2023-12-23T12:10:51.140Z,10.00
2023-12-23T12:13:17.645Z,10.05
2023-12-23T12:15:44.257Z,10.05
2023-12-23T12:18:13.146Z,10.00
2023-12-23T12:20:39.752Z,10.00
2023-12-23T12:23:06.268Z,9.99
2023-12-23T12:25:32.759Z,9.99
2023-12-23T12:27:59.254Z,10.01
2023-12-23T12:30:25.764Z,10.00
2023-12-23T12:32:52.813Z,9.95
2023-12-23T12:35:19.951Z,10.00
2023-12-23T12:37:46.670Z,10.01
2023-12-23T12:40:14.520Z,9.99
2023-12-23T12:42:48.412Z,9.96
2023-12-23T12:45:15.508Z,9.91
2023-12-23T12:47:42.437Z,9.96
2023-12-23T12:50:09.699Z,9.92
2023-12-23T12:52:36.866Z,9.92
2023-12-23T12:55:07.996Z,9.94
2023-12-23T12:57:34.561Z,9.91
2023-12-23T13:00:01.242Z,9.91
2023-12-23T13:02:28.104Z,9.87
2023-12-23T13:04:55.229Z,9.93
2023-12-23T13:07:22.146Z,9.93
2023-12-23T13:09:48.883Z,9.92
2023-12-23T13:12:17.625Z,9.93
2023-12-23T13:14:44.656Z,9.94
2023-12-23T13:17:11.279Z,9.96
2023-12-23T13:19:41.391Z,9.93
2023-12-23T13:22:08.029Z,9.91
2023-12-23T13:24:34.638Z,9.92
2023-12-23T13:27:01.724Z,9.93
2023-12-23T13:29:29.275Z,9.89
2023-12-23T13:31:56.144Z,9.91
2023-12-23T13:34:22.948Z,9.90
2023-12-23T13:36:49.885Z,9.90
2023-12-23T13:39:16.848Z,9.90
2023-12-23T13:41:46.578Z,9.92
2023-12-23T13:44:13.584Z,9.88
2023-12-23T13:46:40.675Z,9.91
2023-12-23T13:49:08.349Z,9.94
2023-12-23T13:51:35.165Z,9.90
2023-12-23T13:54:01.839Z,9.86
2023-12-23T13:56:28.331Z,9.89
2023-12-23T13:58:54.873Z,9.85
2023-12-23T14:01:21.430Z,9.85
2023-12-23T14:03:48.270Z,9.81
2023-12-23T14:06:14.889Z,9.82
2023-12-23T14:08:41.514Z,9.80
2023-12-23T14:11:08.082Z,9.79
2023-12-23T14:13:34.591Z,9.78
2023-12-23T14:16:01.070Z,9.73
2023-12-23T14:18:27.869Z,9.71
2023-12-23T14:20:54.462Z,9.70
2023-12-23T14:23:21.573Z,9.68
2023-12-23T14:25:48.172Z,9.67
2023-12-23T14:28:16.791Z,9.66
2023-12-23T14:30:44.751Z,9.64
2023-12-23T14:33:11.375Z,9.62
2023-12-23T14:35:38.092Z,9.63
2023-12-23T14:38:04.818Z,9.62
2023-12-23T14:40:31.305Z,9.63
2023-12-23T14:42:57.864Z,9.59
2023-12-23T14:45:24.418Z,9.62
2023-12-23T14:47:51.186Z,9.61
2023-12-23T14:50:20.698Z,9.61
2023-12-23T14:52:47.550Z,9.59
2023-12-23T14:55:15.592Z,9.58
2023-12-23T14:57:42.183Z,9.57
2023-12-23T15:00:09.398Z,9.57
2023-12-23T15:02:36.080Z,9.57
2023-12-23T15:05:02.861Z,9.56
2023-12-23T15:07:29.378Z,9.55
2023-12-23T15:09:55.908Z,9.56
2023-12-23T15:12:22.434Z,9.53
2023-12-23T15:14:51.583Z,9.53
2023-12-23T15:17:18.166Z,9.53
2023-12-23T15:19:44.627Z,9.54
2023-12-23T15:22:11.170Z,9.54
2023-12-23T15:24:37.713Z,9.53
2023-12-23T15:27:04.481Z,9.50
2023-12-23T15:29:31.015Z,9.48
2023-12-23T15:31:57.801Z,9.49
2023-12-23T15:34:24.474Z,9.47
2023-12-23T15:36:52.982Z,9.46
2023-12-23T15:39:22.045Z,9.48
2023-12-23T15:41:48.774Z,9.44
2023-12-23T15:44:15.411Z,9.46
2023-12-23T15:46:41.995Z,9.47
2023-12-23T15:49:08.500Z,9.46
2023-12-23T15:51:35.148Z,9.45
2023-12-23T15:54:01.662Z,9.45
2023-12-23T15:56:28.391Z,9.44
2023-12-23T15:58:56.071Z,9.45
2023-12-23T16:01:22.577Z,9.46
2023-12-23T16:03:49.109Z,9.45
2023-12-23T16:06:20.114Z,9.43
2023-12-23T16:08:47.071Z,9.43
2023-12-23T16:11:13.726Z,9.43
2023-12-23T16:13:48.383Z,9.47
2023-12-23T16:16:15.471Z,9.46
2023-12-23T16:18:42.214Z,9.45
2023-12-23T16:21:08.836Z,9.44
2023-12-23T16:23:35.466Z,9.41
2023-12-23T16:26:04.789Z,9.43
2023-12-23T16:28:33.451Z,9.42
2023-12-23T16:31:00.247Z,9.42
2023-12-23T16:33:27.054Z,9.40
2023-12-23T16:35:54.546Z,9.41
2023-12-23T16:38:21.318Z,9.38
2023-12-23T16:40:48.035Z,9.38
2023-12-23T16:43:14.562Z,9.37
2023-12-23T16:45:41.099Z,9.39
2023-12-23T16:48:07.972Z,9.39
2023-12-23T16:50:35.013Z,9.38
2023-12-23T16:53:01.610Z,9.39
2023-12-23T16:55:28.222Z,9.41
2023-12-23T16:57:56.210Z,9.41
2023-12-23T17:00:22.813Z,9.45
2023-12-23T17:02:49.578Z,9.44
2023-12-23T17:05:16.773Z,9.46
2023-12-23T17:07:43.346Z,9.44
2023-12-23T17:10:10.328Z,9.45
2023-12-23T17:12:36.841Z,9.46
2023-12-23T17:15:03.704Z,9.45
2023-12-23T17:17:30.409Z,9.47
2023-12-23T17:19:57.182Z,9.48
2023-12-23T17:22:25.786Z,9.47
2023-12-23T17:24:53.433Z,9.47
2023-12-23T17:27:20.046Z,9.48
2023-12-23T17:29:46.607Z,9.48
2023-12-23T17:32:13.286Z,9.47
2023-12-23T17:34:39.964Z,9.47
2023-12-23T17:37:07.659Z,9.49
2023-12-23T17:39:34.179Z,9.46
2023-12-23T17:42:00.734Z,9.44
2023-12-23T17:44:27.523Z,9.44
2023-12-23T17:46:55.517Z,9.43
2023-12-23T17:49:22.082Z,9.41
2023-12-23T17:51:48.576Z,9.36
2023-12-23T17:54:15.151Z,9.33
2023-12-23T17:56:45.927Z,9.33
2023-12-23T17:59:12.879Z,9.31
2023-12-23T18:01:39.468Z,9.30
2023-12-23T18:04:05.979Z,9.27
2023-12-23T18:06:32.682Z,9.29
2023-12-23T18:08:59.195Z,9.27
2023-12-23T18:11:25.792Z,9.28
2023-12-23T18:13:53.234Z,9.34
2023-12-23T18:16:19.798Z,9.35
2023-12-23T18:18:46.415Z,9.33
2023-12-23T18:21:13.023Z,9.35
2023-12-23T18:23:39.540Z,9.40
2023-12-23T18:26:07.187Z,9.45
2023-12-23T18:28:33.873Z,9.45
2023-12-23T18:31:00.522Z,9.46
2023-12-23T18:33:27.168Z,9.46
2023-12-23T18:35:53.968Z,9.45
2023-12-23T18:38:20.601Z,9.47
2023-12-23T18:40:47.190Z,9.50
2023-12-23T18:43:13.868Z,9.48
2023-12-23T18:45:40.455Z,9.48
2023-12-23T18:48:07.400Z,9.49
2023-12-23T18:50:37.306Z,9.50
2023-12-23T18:53:05.017Z,9.50
2023-12-23T18:55:31.578Z,9.49
2023-12-23T18:57:58.093Z,9.48
2023-12-23T19:00:24.725Z,9.48
2023-12-23T19:02:51.669Z,9.44
2023-12-23T19:05:19.545Z,9.38
2023-12-23T19:07:46.172Z,9.32
2023-12-23T19:10:12.698Z,9.29
2023-12-23T19:12:39.317Z,9.28
2023-12-23T19:15:06.406Z,9.25
2023-12-23T19:17:33.174Z,9.26
2023-12-23T19:20:03.524Z,9.28
2023-12-23T19:22:30.117Z,9.28
2023-12-23T19:24:56.564Z,9.33
2023-12-23T19:27:23.110Z,9.34
2023-12-23T19:29:49.609Z,9.32
2023-12-23T19:32:16.324Z,9.37
2023-12-23T19:34:43.690Z,9.38
2023-12-23T19:37:10.233Z,9.37
2023-12-23T19:39:38.497Z,9.39
2023-12-23T19:42:06.609Z,9.37
2023-12-23T19:44:33.534Z,9.37
2023-12-23T19:47:00.222Z,9.36
2023-12-23T19:49:27.101Z,9.36
2023-12-23T19:51:53.605Z,9.34
2023-12-23T19:54:20.125Z,9.31
2023-12-23T19:56:46.786Z,9.32
2023-12-23T19:59:13.498Z,9.33
2023-12-23T20:01:39.995Z,9.32
2023-12-23T20:04:06.431Z,9.35
2023-12-23T20:06:35.165Z,9.32
2023-12-23T20:09:04.111Z,9.33
2023-12-23T20:11:30.722Z,9.32
2023-12-23T20:13:59.016Z,9.32
2023-12-23T20:16:26.114Z,9.32
2023-12-23T20:18:53.147Z,9.30
2023-12-23T20:21:20.918Z,9.33
2023-12-23T20:23:47.838Z,9.33
2023-12-23T20:26:14.672Z,9.29
2023-12-23T20:28:41.339Z,9.29
2023-12-23T20:31:07.865Z,9.27
2023-12-23T20:33:34.553Z,9.27
2023-12-23T20:36:01.928Z,9.25
2023-12-23T20:38:29.123Z,9.25
2023-12-23T20:40:56.499Z,9.25
2023-12-23T20:43:23.260Z,9.22
2023-12-23T20:45:49.966Z,9.16
2023-12-23T20:48:16.961Z,9.17
2023-12-23T20:50:43.796Z,9.19
2023-12-23T20:53:10.308Z,9.18
2023-12-23T20:55:36.820Z,9.19
2023-12-23T20:58:03.303Z,9.17
2023-12-23T21:00:30.436Z,9.15
2023-12-23T21:02:57.069Z,9.20
2023-12-23T21:05:23.684Z,9.20
2023-12-23T21:07:50.421Z,9.25
2023-12-23T21:10:17.793Z,9.25
2023-12-23T21:12:46.576Z,9.24
2023-12-23T21:15:13.205Z,9.22
2023-12-23T21:17:39.878Z,9.23
2023-12-23T21:20:06.992Z,9.24
2023-12-23T21:22:33.584Z,9.23
2023-12-23T21:25:00.215Z,9.21
2023-12-23T21:27:26.725Z,9.25
2023-12-23T21:29:53.283Z,9.24
2023-12-23T21:32:19.797Z,9.24
2023-12-23T21:34:46.745Z,9.24
2023-12-23T21:37:13.461Z,9.20
2023-12-23T21:39:40.339Z,9.23
2023-12-23T21:42:06.895Z,9.20
2023-12-23T21:44:34.359Z,9.20
2023-12-23T21:47:00.953Z,9.22
2023-12-23T21:49:28.520Z,9.18
2023-12-23T21:51:55.134Z,9.19
2023-12-23T21:54:21.649Z,9.16
2023-12-23T21:56:48.141Z,9.12
2023-12-23T21:59:14.794Z,9.11
2023-12-23T22:01:41.416Z,9.10
2023-12-23T22:04:08.008Z,9.08
2023-12-23T22:06:34.492Z,9.09
2023-12-23T22:09:00.957Z,9.08
2023-12-23T22:11:27.539Z,9.07
2023-12-23T22:13:54.241Z,9.09
2023-12-23T22:16:20.817Z,9.06
2023-12-23T22:18:47.370Z,9.06
2023-12-23T22:21:14.257Z,9.03
2023-12-23T22:23:41.346Z,9.06
2023-12-23T22:26:12.147Z,9.02
2023-12-23T22:28:38.639Z,9.05
2023-12-23T22:31:05.278Z,9.03
2023-12-23T22:33:31.905Z,9.02
2023-12-23T22:35:58.476Z,9.01
2023-12-23T22:38:25.013Z,8.99
2023-12-23T22:40:51.912Z,8.98
2023-12-23T22:43:21.655Z,8.99
2023-12-23T22:45:48.217Z,9.00
2023-12-23T22:48:15.001Z,9.01
2023-12-23T22:50:42.450Z,9.00
2023-12-23T22:53:08.989Z,9.04
2023-12-23T22:55:35.558Z,9.05
2023-12-23T22:58:02.185Z,9.09
2023-12-23T23:00:30.610Z,9.08
2023-12-23T23:02:58.059Z,9.09
2023-12-23T23:05:25.040Z,9.11
2023-12-23T23:07:51.650Z,9.11
2023-12-23T23:10:18.212Z,9.12
2023-12-23T23:12:44.987Z,9.15
2023-12-23T23:15:12.009Z,9.14
2023-12-23T23:17:38.559Z,9.17
2023-12-23T23:20:05.722Z,9.19
2023-12-23T23:22:32.978Z,9.21
2023-12-23T23:24:59.588Z,9.22
2023-12-23T23:27:26.161Z,9.22
2023-12-23T23:29:53.618Z,9.21
2023-12-23T23:32:21.049Z,9.25
2023-12-23T23:34:50.470Z,9.26
2023-12-23T23:37:19.302Z,9.27
2023-12-23T23:39:45.843Z,9.28
2023-12-23T23:42:12.380Z,9.27
2023-12-23T23:44:39.147Z,9.30
2023-12-23T23:47:05.788Z,9.33
2023-12-23T23:49:32.387Z,9.35
2023-12-23T23:51:58.920Z,9.33
2023-12-23T23:54:25.416Z,9.40
2023-12-23T23:56:51.981Z,9.39
2023-12-23T23:59:18.612Z,9.38
